Time;durP1;ratioP1;P1;durP2;ratioP2;P2;SDS_P1;SDS_P2;PMS_P1;PMS_P2;Temp;Humidity;BMP_temperature;BMP_pressure;BME280_temperature;BME280_humidity;BME280_pressure;Samples;Min_cycle;Max_cycle;Signal;HPM_P1;HPM_P2
2023/08/28 00:01:00;;;;;;;15.25;7.07;;;20.30;82.30;;;;;;4721272;30;20063;-95
2023/08/28 00:08:05;;;;;;;14.55;7.05;;;20.10;82.70;;;;;;4756765;30;20051;-95
2023/08/28 00:11:29;;;;;;;13.63;6.10;;;20.10;83.00;;;;;;5021893;24;20055;-95
2023/08/28 00:13:57;;;;;;;11.30;5.50;;;20.20;82.60;;;;;;4765859;30;20114;-94
2023/08/28 00:16:25;;;;;;;10.25;4.60;;;20.20;81.90;;;;;;4749406;30;20048;-95
2023/08/28 00:18:52;;;;;;;12.50;4.97;;;20.10;81.70;;;;;;4735718;30;20048;-95
2023/08/28 00:21:20;;;;;;;10.88;4.43;;;20.10;82.30;;;;;;4732077;30;20044;-96
2023/08/28 00:23:54;;;;;;;12.15;4.72;;;20.00;82.70;;;;;;4730252;30;20056;-96
2023/08/28 00:26:22;;;;;;;7.85;3.58;;;20.00;82.60;;;;;;4757816;30;20052;-94
2023/08/28 00:28:49;;;;;;;7.10;3.45;;;20.00;82.50;;;;;;4733291;30;20058;-95
2023/08/28 00:31:17;;;;;;;9.30;3.33;;;19.90;82.30;;;;;;4746435;30;20546;-94
2023/08/28 00:33:44;;;;;;;7.55;2.85;;;19.90;82.20;;;;;;4747267;30;20049;-94
2023/08/28 00:36:12;;;;;;;6.60;2.65;;;19.80;82.30;;;;;;4732606;30;20086;-94
2023/08/28 00:38:39;;;;;;;6.32;2.40;;;19.90;82.20;;;;;;4731798;30;20052;-95
2023/08/28 00:41:07;;;;;;;6.95;2.83;;;19.90;82.10;;;;;;4743958;30;20443;-94
2023/08/28 00:43:35;;;;;;;7.20;2.13;;;19.80;81.80;;;;;;4760401;30;20088;-94
2023/08/28 00:46:04;;;;;;;5.90;2.10;;;19.80;82.00;;;;;;4757915;30;20091;-94
2023/08/28 00:48:35;;;;;;;5.95;2.45;;;19.70;81.90;;;;;;4757481;30;20079;-93
2023/08/28 00:51:04;;;;;;;3.72;1.67;;;19.60;82.30;;;;;;4757610;30;20110;-95
2023/08/28 00:53:33;;;;;;;4.68;1.70;;;19.60;81.90;;;;;;4755608;30;20139;-94
2023/08/28 00:56:00;;;;;;;5.47;1.70;;;19.50;82.20;;;;;;4740798;30;20455;-94
2023/08/28 00:58:30;;;;;;;4.63;1.80;;;19.50;82.10;;;;;;4729464;30;20083;-94
2023/08/28 01:00:57;;;;;;;4.00;1.77;;;19.40;82.50;;;;;;4743891;30;20060;-95
2023/08/28 01:03:25;;;;;;;4.85;2.00;;;19.40;82.10;;;;;;4729466;30;20070;-94
2023/08/28 01:06:10;;;;;;;3.83;1.45;;;19.30;82.40;;;;;;4760838;30;20508;-94
2023/08/28 01:09:06;;;;;;;4.13;1.83;;;19.20;82.50;;;;;;4767617;30;20063;-96
2023/08/28 01:11:47;;;;;;;3.90;1.73;;;19.40;82.30;;;;;;4745128;30;20056;-96
2023/08/28 01:14:28;;;;;;;3.97;1.80;;;19.40;81.90;;;;;;4722693;30;20076;-96
2023/08/28 01:17:07;;;;;;;4.53;1.98;;;19.50;81.80;;;;;;4766387;30;20056;-96
2023/08/28 01:19:42;;;;;;;5.20;1.92;;;19.50;81.50;;;;;;4814125;24;20068;-95
2023/08/28 01:23:04;;;;;;;4.23;1.60;;;19.60;81.70;;;;;;4880199;24;20055;-96
2023/08/28 01:25:36;;;;;;;3.75;1.40;;;19.60;81.20;;;;;;4789798;30;20115;-95
2023/08/28 01:28:41;;;;;;;3.55;1.73;;;19.60;80.80;;;;;;4774115;24;20052;-96
2023/08/28 01:31:14;;;;;;;3.00;1.35;;;19.60;80.90;;;;;;4753972;30;20120;-95
2023/08/28 01:33:49;;;;;;;3.67;2.00;;;19.70;80.60;;;;;;4759213;30;20079;-95
2023/08/28 01:40:29;;;;;;;6.25;1.90;;;19.90;80.30;;;;;;4788522;30;20096;-96
2023/08/28 01:43:03;;;;;;;4.63;1.88;;;19.80;80.80;;;;;;4772225;30;20048;-96
2023/08/28 01:45:36;;;;;;;4.43;1.90;;;19.90;80.80;;;;;;4755392;30;20052;-96
2023/08/28 01:48:05;;;;;;;4.10;1.75;;;19.90;80.50;;;;;;4755478;30;20051;-96
2023/08/28 01:50:34;;;;;;;3.87;1.57;;;19.90;80.70;;;;;;4758389;30;20055;-96
2023/08/28 01:53:04;;;;;;;4.45;1.80;;;19.90;81.20;;;;;;4772119;30;20040;-95
2023/08/28 01:55:47;;;;;;;4.25;1.85;;;19.90;80.60;;;;;;4775415;30;20047;-95
2023/08/28 01:58:25;;;;;;;5.47;2.10;;;20.00;80.40;;;;;;4772254;30;20051;-95
2023/08/28 02:03:56;;;;;;;4.67;2.10;;;19.90;80.80;;;;;;4730630;24;20130;-90
2023/08/28 02:06:23;;;;;;;5.05;1.83;;;19.90;80.30;;;;;;4772467;29;20071;-89
2023/08/28 02:08:51;;;;;;;5.03;2.13;;;20.00;80.10;;;;;;4766633;29;20051;-90
2023/08/28 02:11:18;;;;;;;3.85;1.77;;;20.00;80.30;;;;;;4771857;29;20046;-90
2023/08/28 02:13:45;;;;;;;4.97;2.25;;;20.00;80.20;;;;;;4786545;29;20047;-90
2023/08/28 02:16:12;;;;;;;5.37;1.70;;;20.00;80.20;;;;;;4774022;29;20059;-89
2023/08/28 02:18:39;;;;;;;5.43;1.90;;;20.00;80.20;;;;;;4773299;29;20099;-90
2023/08/28 02:21:07;;;;;;;4.53;1.83;;;20.00;80.60;;;;;;4775216;29;20461;-90
2023/08/28 02:23:34;;;;;;;3.63;1.70;;;20.00;80.70;;;;;;4788672;29;20050;-89
2023/08/28 02:26:02;;;;;;;6.32;1.77;;;20.00;80.70;;;;;;4772179;29;20081;-90
2023/08/28 02:28:29;;;;;;;3.90;1.93;;;20.00;80.40;;;;;;4767979;29;20051;-90
2023/08/28 02:31:00;;;;;;;4.95;1.83;;;20.00;80.50;;;;;;4774292;29;20047;-90
2023/08/28 02:33:27;;;;;;;3.95;2.10;;;20.10;80.60;;;;;;4787475;29;20046;-90
2023/08/28 02:35:54;;;;;;;6.35;2.05;;;20.10;80.50;;;;;;4775244;29;20054;-91
2023/08/28 02:38:22;;;;;;;4.60;1.73;;;20.10;80.40;;;;;;4782397;29;20054;-90
2023/08/28 02:40:49;;;;;;;4.40;1.97;;;20.10;80.40;;;;;;4765535;29;20055;-90
2023/08/28 02:43:16;;;;;;;4.78;2.22;;;20.10;80.40;;;;;;4773108;29;20078;-90
2023/08/28 02:45:44;;;;;;;7.30;1.83;;;20.10;80.60;;;;;;4773599;29;20113;-89
2023/08/28 02:48:11;;;;;;;5.75;2.40;;;20.10;80.70;;;;;;4772742;29;20409;-89
2023/08/28 02:50:38;;;;;;;5.68;2.30;;;20.10;80.50;;;;;;4766576;29;20073;-89
2023/08/28 02:53:05;;;;;;;4.77;2.00;;;20.00;80.60;;;;;;4774481;29;20092;-88
2023/08/28 02:55:39;;;;;;;5.78;2.08;;;20.10;80.70;;;;;;4771375;29;20039;-88
2023/08/28 02:58:08;;;;;;;5.28;2.22;;;20.10;80.60;;;;;;4785263;29;20562;-88
2023/08/28 03:00:41;;;;;;;4.32;2.40;;;20.10;80.60;;;;;;4785887;29;20051;-88
2023/08/28 03:03:09;;;;;;;6.10;2.83;;;20.10;80.60;;;;;;4770861;29;20043;-87
2023/08/28 03:05:36;;;;;;;5.83;2.40;;;20.10;80.70;;;;;;4754856;30;20537;-88
2023/08/28 03:08:04;;;;;;;4.88;2.42;;;20.00;80.80;;;;;;4766653;30;20043;-88
2023/08/28 03:10:34;;;;;;;5.47;2.85;;;20.00;81.00;;;;;;4755182;30;20502;-88
2023/08/28 03:13:02;;;;;;;6.25;2.47;;;20.00;81.10;;;;;;4756171;30;20506;-88
2023/08/28 03:15:33;;;;;;;8.25;2.85;;;20.00;81.10;;;;;;4756488;30;20047;-88
2023/08/28 03:18:00;;;;;;;5.07;2.60;;;20.00;81.00;;;;;;4758845;30;20431;-88
2023/08/28 03:20:27;;;;;;;5.63;2.80;;;20.00;80.90;;;;;;4767946;30;20039;-88
2023/08/28 03:22:55;;;;;;;6.72;2.55;;;19.90;81.00;;;;;;4768959;30;20052;-88
2023/08/28 03:25:23;;;;;;;6.00;2.72;;;19.80;81.10;;;;;;4757989;30;20039;-88
2023/08/28 03:27:50;;;;;;;6.40;2.92;;;19.80;81.20;;;;;;4772040;30;20055;-88
2023/08/28 03:30:18;;;;;;;6.53;2.50;;;19.90;81.20;;;;;;4754910;30;20080;-88
2023/08/28 03:32:45;;;;;;;6.68;2.70;;;19.90;81.30;;;;;;4757922;30;20047;-88
2023/08/28 03:35:12;;;;;;;7.00;2.75;;;19.90;81.20;;;;;;4754658;30;20134;-88
2023/08/28 03:37:40;;;;;;;6.00;2.90;;;19.90;81.20;;;;;;4770928;30;20053;-88
2023/08/28 03:40:09;;;;;;;6.25;3.10;;;19.90;81.40;;;;;;4750541;30;20565;-88
2023/08/28 03:42:36;;;;;;;8.40;3.23;;;19.80;81.40;;;;;;4754441;30;20051;-89
2023/08/28 03:45:03;;;;;;;6.90;3.33;;;19.90;81.40;;;;;;4751076;30;20131;-89
2023/08/28 03:47:31;;;;;;;7.07;3.13;;;19.80;81.50;;;;;;4757002;30;20409;-89
2023/08/28 03:49:58;;;;;;;7.10;2.70;;;19.90;81.50;;;;;;4752823;30;20402;-89
2023/08/28 03:52:25;;;;;;;5.90;2.92;;;19.90;81.60;;;;;;4771480;30;20047;-89
2023/08/28 03:54:52;;;;;;;9.27;2.93;;;19.90;81.70;;;;;;4770218;30;20405;-88
2023/08/28 03:57:20;;;;;;;7.10;2.75;;;19.90;81.50;;;;;;4773381;30;20043;-88
2023/08/28 03:59:47;;;;;;;6.93;2.83;;;19.90;81.50;;;;;;4764796;30;20055;-88
2023/08/28 04:02:14;;;;;;;6.82;2.90;;;19.90;81.40;;;;;;4756840;30;20047;-88
2023/08/28 04:04:41;;;;;;;8.40;3.17;;;20.00;81.40;;;;;;4769856;29;20069;-88
2023/08/28 04:07:23;;;;;;;6.93;2.80;;;19.90;81.40;;;;;;4783407;29;20080;-89
2023/08/28 04:09:53;;;;;;;6.28;2.83;;;19.90;81.30;;;;;;4773655;29;20050;-88
2023/08/28 04:12:20;;;;;;;7.47;3.17;;;20.00;81.20;;;;;;4785076;29;20049;-88
2023/08/28 04:14:48;;;;;;;5.55;2.90;;;20.00;80.70;;;;;;4791112;29;20137;-89
2023/08/28 04:17:16;;;;;;;6.05;2.78;;;19.90;80.50;;;;;;4772481;29;20043;-88
2023/08/28 04:19:43;;;;;;;5.93;2.67;;;19.90;80.40;;;;;;4785034;29;20052;-88
2023/08/28 04:22:10;;;;;;;5.95;2.50;;;19.90;80.50;;;;;;4777146;29;20441;-88
2023/08/28 04:24:38;;;;;;;5.22;2.40;;;19.90;80.20;;;;;;4791141;29;20058;-88
2023/08/28 04:27:05;;;;;;;7.13;2.40;;;19.80;80.00;;;;;;4788182;29;20059;-88
2023/08/28 04:29:33;;;;;;;6.18;2.47;;;19.90;80.10;;;;;;4785125;29;20105;-88
2023/08/28 04:32:00;;;;;;;6.50;2.10;;;19.80;80.00;;;;;;4771779;29;20043;-88
2023/08/28 04:34:27;;;;;;;5.63;2.25;;;19.80;79.80;;;;;;4776252;29;20049;-88
2023/08/28 04:36:54;;;;;;;5.03;2.20;;;19.80;80.10;;;;;;4768884;29;20047;-88
2023/08/28 04:39:23;;;;;;;6.60;2.70;;;19.80;79.70;;;;;;4777531;29;20054;-88
2023/08/28 04:41:51;;;;;;;6.20;2.60;;;19.80;79.40;;;;;;4775153;29;20051;-88
2023/08/28 04:44:21;;;;;;;5.53;2.50;;;19.80;79.50;;;;;;4769756;29;20046;-89
2023/08/28 04:46:49;;;;;;;4.78;2.53;;;19.80;79.60;;;;;;4771586;29;20070;-89
2023/08/28 04:49:16;;;;;;;5.05;2.50;;;19.80;79.30;;;;;;4775249;29;20096;-89
2023/08/28 04:51:43;;;;;;;5.65;2.03;;;19.80;79.20;;;;;;4785882;30;20047;-89
2023/08/28 04:54:10;;;;;;;5.97;2.83;;;19.80;79.10;;;;;;4784901;29;20494;-88
2023/08/28 04:56:37;;;;;;;6.93;2.43;;;19.70;79.20;;;;;;4776419;29;20493;-88
2023/08/28 04:59:05;;;;;;;5.13;2.50;;;19.70;79.70;;;;;;4774522;29;20096;-88
2023/08/28 05:01:32;;;;;;;7.30;3.50;;;19.70;80.00;;;;;;4767412;29;20079;-89
2023/08/28 05:04:00;;;;;;;6.47;2.88;;;19.70;79.60;;;;;;4771045;29;20130;-88
2023/08/28 05:06:27;;;;;;;6.18;3.38;;;19.70;79.90;;;;;;4782359;29;20137;-89
2023/08/28 05:08:54;;;;;;;5.63;2.73;;;19.60;80.60;;;;;;4768649;30;20055;-89
2023/08/28 05:11:22;;;;;;;7.72;3.08;;;19.70;80.70;;;;;;4784691;29;20108;-89
2023/08/28 05:13:49;;;;;;;6.07;3.03;;;19.70;80.90;;;;;;4771466;29;20058;-89
2023/08/28 05:16:16;;;;;;;6.43;3.30;;;19.70;81.00;;;;;;4790295;29;20043;-89
2023/08/28 05:18:43;;;;;;;5.68;2.90;;;19.80;80.90;;;;;;4773317;29;20553;-89
2023/08/28 05:21:10;;;;;;;7.27;3.77;;;19.80;81.20;;;;;;4766291;29;20051;-88
2023/08/28 05:23:37;;;;;;;12.27;4.43;;;19.70;81.60;;;;;;4773485;29;20112;-88
2023/08/28 05:26:04;;;;;;;8.98;4.18;;;19.80;81.40;;;;;;4769923;29;20133;-88
2023/08/28 05:28:34;;;;;;;7.95;4.40;;;19.70;81.30;;;;;;4770259;29;20055;-89
2023/08/28 05:31:03;;;;;;;9.40;4.05;;;19.80;81.30;;;;;;4787366;29;20046;-89
2023/08/28 05:33:30;;;;;;;7.90;3.77;;;19.80;81.20;;;;;;4774897;29;20070;-89
2023/08/28 05:35:58;;;;;;;6.95;3.63;;;19.80;81.60;;;;;;4773715;29;20493;-89
2023/08/28 05:38:25;;;;;;;7.70;3.50;;;19.80;81.50;;;;;;4787495;29;20057;-89
2023/08/28 05:40:52;;;;;;;7.10;3.40;;;19.80;81.10;;;;;;4770786;29;20046;-89
2023/08/28 05:43:19;;;;;;;7.22;3.72;;;19.80;80.80;;;;;;4789789;29;20054;-89
2023/08/28 05:45:47;;;;;;;7.27;3.20;;;19.90;80.80;;;;;;4771983;29;20136;-89
2023/08/28 05:48:14;;;;;;;8.32;2.70;;;19.80;80.00;;;;;;4768864;29;20131;-88
2023/08/28 05:50:48;;;;;;;5.43;2.78;;;19.80;80.20;;;;;;4783302;29;20142;-89
2023/08/28 05:53:15;;;;;;;8.60;3.05;;;19.90;80.00;;;;;;4764853;29;20405;-89
2023/08/28 05:55:42;;;;;;;5.40;2.72;;;19.90;79.70;;;;;;4772056;29;20046;-88
2023/08/28 05:58:09;;;;;;;6.80;2.50;;;19.90;79.80;;;;;;4774039;29;20134;-88
2023/08/28 06:00:36;;;;;;;5.15;2.50;;;19.80;79.20;;;;;;4766792;29;20057;-89
2023/08/28 06:03:04;;;;;;;4.93;2.55;;;19.80;79.40;;;;;;4771492;29;20109;-89
2023/08/28 06:05:31;;;;;;;6.80;2.70;;;19.80;79.80;;;;;;4787581;30;20058;-89
2023/08/28 06:07:58;;;;;;;5.90;2.70;;;19.80;79.50;;;;;;4781100;30;20052;-89
2023/08/28 06:10:28;;;;;;;6.10;2.67;;;19.80;79.80;;;;;;4769825;30;20043;-89
2023/08/28 06:12:56;;;;;;;11.45;3.13;;;19.90;79.10;;;;;;4768590;30;20501;-88
2023/08/28 06:15:25;;;;;;;6.20;3.05;;;20.00;78.80;;;;;;4748536;30;20055;-88
2023/08/28 06:17:53;;;;;;;6.57;3.17;;;19.90;79.20;;;;;;4754402;30;20058;-89
2023/08/28 06:20:22;;;;;;;6.68;3.80;;;19.90;79.40;;;;;;4762965;30;20052;-88
2023/08/28 06:22:49;;;;;;;7.53;3.90;;;19.90;79.60;;;;;;4751146;30;20056;-89
2023/08/28 06:25:16;;;;;;;6.72;3.55;;;19.90;78.70;;;;;;4737942;30;20099;-89
2023/08/28 06:27:44;;;;;;;7.45;3.95;;;19.80;78.70;;;;;;4750625;30;20087;-89
2023/08/28 06:30:11;;;;;;;7.07;3.58;;;19.70;78.70;;;;;;4761802;30;20064;-89
2023/08/28 06:32:38;;;;;;;6.80;3.75;;;19.60;80.00;;;;;;4754764;30;20048;-89
2023/08/28 06:35:06;;;;;;;8.23;3.10;;;19.70;79.40;;;;;;4739898;30;20044;-89
2023/08/28 06:37:33;;;;;;;6.88;3.63;;;19.60;79.00;;;;;;4768965;30;20047;-89
2023/08/28 06:40:01;;;;;;;7.35;3.50;;;19.70;79.30;;;;;;4756459;30;20047;-89
2023/08/28 06:42:28;;;;;;;7.32;3.50;;;19.80;79.10;;;;;;4751009;30;20052;-89
2023/08/28 06:44:55;;;;;;;7.10;3.50;;;19.80;79.10;;;;;;4771608;30;20063;-89
2023/08/28 06:47:26;;;;;;;7.93;3.60;;;19.60;79.20;;;;;;4769422;30;20052;-89
2023/08/28 06:49:53;;;;;;;8.13;3.50;;;19.50;79.50;;;;;;4770486;30;20138;-89
2023/08/28 06:52:20;;;;;;;6.85;3.42;;;19.50;79.90;;;;;;4784129;30;20043;-89
2023/08/28 06:54:47;;;;;;;7.50;3.97;;;19.40;80.00;;;;;;4763865;30;20071;-89
2023/08/28 06:57:19;;;;;;;9.35;4.45;;;19.30;79.90;;;;;;4746034;30;20712;-89
2023/08/28 06:59:46;;;;;;;8.00;3.60;;;19.30;80.50;;;;;;4748629;30;20109;-89
2023/08/28 07:02:13;;;;;;;7.78;4.00;;;19.40;80.60;;;;;;4770886;30;20087;-88
2023/08/28 07:04:40;;;;;;;7.45;4.13;;;19.50;80.10;;;;;;4775651;29;20055;-89
2023/08/28 07:07:07;;;;;;;8.88;4.07;;;19.50;80.40;;;;;;4776918;29;20050;-89
2023/08/28 07:09:34;;;;;;;12.15;4.63;;;19.60;80.10;;;;;;4785849;29;20078;-89
2023/08/28 07:12:02;;;;;;;9.70;4.33;;;19.60;80.10;;;;;;4774053;29;20057;-88
2023/08/28 07:14:29;;;;;;;11.50;4.68;;;19.60;80.10;;;;;;4789685;29;20046;-89
2023/08/28 07:16:56;;;;;;;10.40;5.47;;;19.70;80.00;;;;;;4771678;29;20108;-92
2023/08/28 07:19:23;;;;;;;9.25;4.90;;;19.80;79.70;;;;;;4779071;29;20066;-92
2023/08/28 07:21:50;;;;;;;9.32;4.70;;;19.70;79.60;;;;;;4778952;29;20069;-91
2023/08/28 07:24:17;;;;;;;8.77;4.87;;;19.60;80.20;;;;;;4778960;29;20047;-92
2023/08/28 07:26:44;;;;;;;9.57;5.72;;;19.60;80.30;;;;;;4778508;29;20086;-91
2023/08/28 07:29:11;;;;;;;10.55;6.20;;;19.70;80.40;;;;;;4778652;29;20598;-93
2023/08/28 07:31:39;;;;;;;10.25;5.88;;;19.70;80.30;;;;;;4778523;29;20086;-92
2023/08/28 07:34:05;;;;;;;9.43;5.38;;;19.70;80.00;;;;;;4793534;29;20497;-92
2023/08/28 07:36:33;;;;;;;10.07;5.50;;;19.70;80.30;;;;;;4778750;29;20505;-91
2023/08/28 07:39:00;;;;;;;10.30;5.13;;;19.70;80.60;;;;;;4778543;29;20108;-91
2023/08/28 07:41:27;;;;;;;10.10;5.45;;;19.70;80.30;;;;;;4778636;29;20142;-90
2023/08/28 07:43:54;;;;;;;10.57;5.63;;;19.70;80.10;;;;;;4773004;29;20051;-91
2023/08/28 07:46:21;;;;;;;9.10;4.70;;;19.60;80.10;;;;;;4778750;29;20051;-91
2023/08/28 07:48:48;;;;;;;10.83;5.17;;;19.60;79.60;;;;;;4770063;29;20078;-91
2023/08/28 07:51:15;;;;;;;9.30;5.05;;;19.50;79.60;;;;;;4772357;29;20501;-90
2023/08/28 07:53:42;;;;;;;8.30;4.95;;;19.50;80.00;;;;;;4790957;29;20051;-90
2023/08/28 07:56:10;;;;;;;9.57;5.07;;;19.50;80.20;;;;;;4775800;29;20509;-92
2023/08/28 07:58:37;;;;;;;9.57;4.72;;;19.40;80.10;;;;;;4776749;29;20394;-91
2023/08/28 08:01:05;;;;;;;9.47;4.93;;;19.50;80.40;;;;;;4788540;29;20083;-88
2023/08/28 08:03:33;;;;;;;8.40;4.80;;;19.60;80.10;;;;;;4776885;29;20063;-91
2023/08/28 08:06:03;;;;;;;9.27;5.22;;;19.60;80.00;;;;;;4775227;29;20540;-89
2023/08/28 08:08:30;;;;;;;10.88;5.90;;;19.60;80.30;;;;;;4786697;29;20074;-91
2023/08/28 08:10:57;;;;;;;9.85;5.38;;;19.70;80.00;;;;;;4771350;29;20051;-89
2023/08/28 08:13:24;;;;;;;11.23;6.00;;;19.70;80.00;;;;;;4777684;29;20100;-91
2023/08/28 08:15:51;;;;;;;9.55;4.78;;;19.80;79.60;;;;;;4777906;29;20062;-91
2023/08/28 08:18:18;;;;;;;10.85;5.68;;;19.80;79.20;;;;;;4777888;29;20051;-91
2023/08/28 08:20:45;;;;;;;11.10;5.38;;;19.70;79.50;;;;;;4789720;29;20498;-90
2023/08/28 08:23:12;;;;;;;10.20;4.90;;;19.80;79.60;;;;;;4777779;29;20138;-91
2023/08/28 08:25:39;;;;;;;10.10;5.57;;;19.80;79.30;;;;;;4792066;29;20053;-91
2023/08/28 08:28:06;;;;;;;10.75;5.47;;;19.70;79.50;;;;;;4786925;29;20067;-90
2023/08/28 08:30:33;;;;;;;11.65;5.45;;;19.60;79.50;;;;;;4776779;29;20051;-91
2023/08/28 08:33:03;;;;;;;9.82;4.85;;;19.50;79.60;;;;;;4776501;29;20047;-90
2023/08/28 08:35:31;;;;;;;11.93;5.45;;;19.50;79.90;;;;;;4767188;29;20104;-91
2023/08/28 08:37:58;;;;;;;9.20;5.37;;;19.50;80.10;;;;;;4773272;29;20459;-91
2023/08/28 08:40:26;;;;;;;10.40;5.25;;;19.50;79.50;;;;;;4787024;29;20145;-91
2023/08/28 08:42:56;;;;;;;9.07;5.32;;;19.60;79.60;;;;;;4777313;29;20485;-91
2023/08/28 08:45:28;;;;;;;9.63;5.28;;;19.60;79.30;;;;;;4777305;29;20050;-91
2023/08/28 08:48:00;;;;;;;9.50;4.93;;;19.50;79.60;;;;;;4792329;29;20386;-94
2023/08/28 08:50:28;;;;;;;9.57;5.40;;;19.50;79.90;;;;;;4777381;29;20051;-91
2023/08/28 08:53:06;;;;;;;10.75;6.00;;;19.50;79.60;;;;;;4792098;29;20047;-95
2023/08/28 08:55:46;;;;;;;10.02;5.43;;;19.60;79.90;;;;;;4791488;29;20055;-90
2023/08/28 08:58:17;;;;;;;11.13;5.63;;;19.60;79.40;;;;;;4763490;29;20054;-90
2023/08/28 09:00:44;;;;;;;11.25;5.88;;;19.60;79.60;;;;;;4788847;29;20128;-90
2023/08/28 09:03:13;;;;;;;12.57;6.83;;;19.70;79.70;;;;;;4767351;29;20570;-92
2023/08/28 09:05:41;;;;;;;11.43;6.95;;;19.70;79.40;;;;;;4785068;30;20044;-92
2023/08/28 09:08:11;;;;;;;14.38;7.55;;;19.60;79.90;;;;;;4759574;30;20062;-93
2023/08/28 09:10:38;;;;;;;11.68;6.60;;;19.60;80.30;;;;;;4763177;29;20094;-92
2023/08/28 09:13:05;;;;;;;12.23;7.10;;;19.60;79.50;;;;;;4792244;29;20085;-91
2023/08/28 09:15:33;;;;;;;12.40;7.10;;;19.60;79.70;;;;;;4773181;29;20142;-91
2023/08/28 09:18:04;;;;;;;13.50;7.20;;;19.60;79.80;;;;;;4767322;29;20043;-91
2023/08/28 09:20:31;;;;;;;12.63;6.60;;;19.50;79.90;;;;;;4791415;29;20058;-91
2023/08/28 09:22:58;;;;;;;11.90;6.50;;;19.60;80.10;;;;;;4760291;30;20048;-91
2023/08/28 09:25:26;;;;;;;12.80;7.00;;;19.70;79.40;;;;;;4790789;29;20055;-91
2023/08/28 09:27:55;;;;;;;13.10;6.80;;;19.70;79.30;;;;;;4771110;30;20052;-92
2023/08/28 09:30:38;;;;;;;12.75;6.80;;;19.70;79.50;;;;;;4786052;29;20558;-90
2023/08/28 09:33:07;;;;;;;12.25;7.30;;;19.60;79.60;;;;;;4773968;29;20043;-91
2023/08/28 09:35:41;;;;;;;12.82;6.70;;;19.70;79.60;;;;;;4785868;29;20067;-91
2023/08/28 09:38:09;;;;;;;12.77;7.35;;;19.70;80.10;;;;;;4785123;29;20532;-91
2023/08/28 09:40:39;;;;;;;14.33;7.67;;;19.60;79.70;;;;;;4791285;29;20051;-91
2023/08/28 09:43:12;;;;;;;12.80;7.55;;;19.70;79.50;;;;;;4791605;29;20057;-92
2023/08/28 09:45:40;;;;;;;14.65;7.60;;;19.70;79.80;;;;;;4790326;29;20682;-92
2023/08/28 09:48:07;;;;;;;15.00;7.93;;;19.70;79.70;;;;;;4773139;29;20430;-91
2023/08/28 09:50:39;;;;;;;13.38;7.95;;;19.80;79.40;;;;;;4790253;29;20062;-91
2023/08/28 09:53:14;;;;;;;13.67;7.83;;;19.80;79.40;;;;;;4766483;29;20110;-91
2023/08/28 09:55:52;;;;;;;14.00;8.95;;;19.90;79.00;;;;;;4790932;29;20145;-90
2023/08/28 09:58:23;;;;;;;15.02;8.80;;;19.90;79.10;;;;;;4772987;29;20130;-92
2023/08/28 10:00:52;;;;;;;15.65;8.73;;;19.90;79.30;;;;;;4781957;29;20456;-91
2023/08/28 10:03:21;;;;;;;15.90;8.40;;;19.90;79.40;;;;;;4776259;29;20085;-91
2023/08/28 10:05:51;;;;;;;13.97;7.27;;;19.90;79.20;;;;;;4768139;29;20059;-92
2023/08/28 10:08:18;;;;;;;13.95;7.75;;;19.90;79.60;;;;;;4768097;29;20455;-90
2023/08/28 10:10:51;;;;;;;14.63;8.60;;;20.00;79.30;;;;;;4781394;29;20048;-91
2023/08/28 10:13:55;;;;;;;13.85;8.02;;;20.00;79.00;;;;;;4787501;29;20046;-96
2023/08/28 10:16:26;;;;;;;13.70;7.70;;;20.00;79.40;;;;;;4783055;29;20066;-95
2023/08/28 10:19:34;;;;;;;13.13;7.67;;;19.90;79.80;;;;;;5136033;24;20049;-96
2023/08/28 10:22:13;;;;;;;13.30;7.88;;;19.90;79.30;;;;;;4776170;29;20051;-90
2023/08/28 10:24:44;;;;;;;14.23;8.38;;;19.80;79.60;;;;;;4754392;30;20057;-91
2023/08/28 10:27:13;;;;;;;13.02;7.47;;;19.80;79.60;;;;;;4750372;30;20146;-92
2023/08/28 10:29:41;;;;;;;12.65;7.45;;;19.80;79.70;;;;;;4755346;30;20068;-91
2023/08/28 10:32:10;;;;;;;13.10;6.90;;;19.80;79.70;;;;;;4773316;29;20055;-89
2023/08/28 10:34:42;;;;;;;12.50;7.47;;;19.80;79.50;;;;;;4764762;30;20502;-92
2023/08/28 10:37:10;;;;;;;13.93;7.10;;;19.80;79.80;;;;;;4781244;29;20514;-91
2023/08/28 10:39:58;;;;;;;12.15;7.43;;;19.90;78.90;;;;;;4777885;29;20559;-92
2023/08/28 10:42:26;;;;;;;11.68;6.80;;;20.00;78.90;;;;;;4790865;29;20134;-93
2023/08/28 10:44:54;;;;;;;13.27;7.53;;;19.90;78.50;;;;;;4776100;29;20551;-92
2023/08/28 10:47:24;;;;;;;15.18;7.47;;;19.90;78.80;;;;;;4778350;29;20074;-94
2023/08/28 10:49:56;;;;;;;11.93;7.40;;;19.80;78.70;;;;;;4792624;29;20043;-93
2023/08/28 10:52:24;;;;;;;14.23;7.72;;;19.80;79.00;;;;;;4791360;29;20047;-92
2023/08/28 10:54:55;;;;;;;15.77;8.50;;;19.80;79.00;;;;;;4791303;29;20055;-93
2023/08/28 10:57:24;;;;;;;13.30;7.63;;;19.70;79.40;;;;;;4790848;29;20371;-93
2023/08/28 10:59:51;;;;;;;14.15;7.28;;;19.70;79.40;;;;;;4775904;29;20401;-91
2023/08/28 11:02:19;;;;;;;14.55;7.45;;;19.80;79.20;;;;;;4775507;29;20055;-92
2023/08/28 11:04:47;;;;;;;15.00;8.30;;;19.70;79.30;;;;;;4790544;29;20051;-92
2023/08/28 11:07:27;;;;;;;15.13;7.60;;;19.80;79.40;;;;;;4790628;29;20051;-92
2023/08/28 11:10:18;;;;;;;14.50;8.43;;;19.80;79.50;;;;;;4775972;29;20062;-91
2023/08/28 11:12:59;;;;;;;14.55;7.10;;;19.80;79.30;;;;;;4790298;29;20047;-90
2023/08/28 11:15:33;;;;;;;13.40;7.00;;;19.80;79.50;;;;;;4780145;29;20414;-90
2023/08/28 11:18:20;;;;;;;11.13;6.20;;;19.80;79.40;;;;;;4788938;29;20051;-90
2023/08/28 11:20:51;;;;;;;13.82;6.65;;;19.80;79.00;;;;;;4788568;29;20051;-91
2023/08/28 11:23:27;;;;;;;12.53;6.37;;;19.90;79.00;;;;;;4769116;30;20413;-91
2023/08/28 11:25:55;;;;;;;10.57;6.38;;;19.80;79.30;;;;;;4761885;29;20570;-91
2023/08/28 11:28:43;;;;;;;13.13;6.47;;;19.90;79.30;;;;;;4773182;30;20057;-90
2023/08/28 11:31:10;;;;;;;13.93;5.40;;;19.90;79.10;;;;;;4778327;29;20043;-90
2023/08/28 11:33:39;;;;;;;13.10;5.82;;;20.00;79.00;;;;;;4778445;29;20451;-90
2023/08/28 11:36:14;;;;;;;11.93;5.77;;;20.00;79.10;;;;;;4743235;30;20411;-91
2023/08/28 11:38:42;;;;;;;11.35;6.03;;;20.00;79.10;;;;;;4782128;29;20043;-91
2023/08/28 11:41:10;;;;;;;12.30;5.82;;;20.00;79.20;;;;;;4764804;29;20050;-90
2023/08/28 11:43:40;;;;;;;11.23;5.55;;;20.10;78.90;;;;;;4773616;29;20578;-91
2023/08/28 11:46:09;;;;;;;10.68;5.38;;;20.00;78.60;;;;;;4778185;29;20081;-90
2023/08/28 11:48:43;;;;;;;9.53;5.20;;;19.90;78.90;;;;;;4778599;29;20057;-90
2023/08/28 11:51:11;;;;;;;12.23;6.43;;;19.90;79.20;;;;;;4788781;29;20050;-90
2023/08/28 11:53:43;;;;;;;11.20;5.32;;;19.90;79.60;;;;;;4790528;29;20062;-89
2023/08/28 11:56:12;;;;;;;12.32;6.10;;;20.00;79.40;;;;;;4779046;29;20058;-95
2023/08/28 11:58:42;;;;;;;11.20;5.82;;;19.90;79.80;;;;;;4794266;29;20055;-92
2023/08/28 12:01:12;;;;;;;12.00;6.13;;;20.00;79.70;;;;;;4793165;29;20112;-91
2023/08/28 12:03:44;;;;;;;10.65;5.68;;;19.80;79.50;;;;;;4784126;29;20058;-91
2023/08/28 12:06:14;;;;;;;10.85;5.78;;;19.80;80.30;;;;;;4777956;29;20057;-91
2023/08/28 12:08:42;;;;;;;9.93;5.47;;;19.90;80.30;;;;;;4777991;29;20145;-90
2023/08/28 12:11:14;;;;;;;11.27;5.45;;;19.80;79.90;;;;;;4767032;30;20058;-91
2023/08/28 12:13:41;;;;;;;12.37;5.90;;;19.80;80.30;;;;;;4742956;30;20519;-91
2023/08/28 12:16:20;;;;;;;10.60;5.03;;;19.80;80.20;;;;;;4775641;29;20046;-90
2023/08/28 12:18:49;;;;;;;10.05;5.32;;;19.70;80.20;;;;;;4778511;29;20057;-90
2023/08/28 12:21:20;;;;;;;10.15;5.15;;;19.60;80.50;;;;;;4776159;29;20066;-92
2023/08/28 12:23:53;;;;;;;10.45;5.22;;;19.50;80.40;;;;;;4778261;29;20069;-90
2023/08/28 12:26:23;;;;;;;11.10;5.00;;;19.50;80.60;;;;;;4773157;29;20052;-90
2023/08/28 12:28:53;;;;;;;10.38;5.50;;;19.50;80.90;;;;;;4790609;29;20054;-89
2023/08/28 12:31:27;;;;;;;11.32;5.40;;;19.50;80.50;;;;;;4758275;30;20062;-91
2023/08/28 12:33:55;;;;;;;10.65;6.18;;;19.50;80.70;;;;;;4786458;29;20047;-89
2023/08/28 12:36:36;;;;;;;10.35;4.93;;;19.60;80.80;;;;;;4776681;29;20520;-90
2023/08/28 12:39:05;;;;;;;10.53;5.20;;;19.50;80.90;;;;;;4772732;29;20570;-90
2023/08/28 12:41:37;;;;;;;10.93;5.20;;;19.50;81.00;;;;;;4769396;29;20052;-90
2023/08/28 12:44:04;;;;;;;9.18;4.90;;;19.60;80.90;;;;;;4755326;30;20146;-93
2023/08/28 12:46:31;;;;;;;10.15;4.97;;;19.60;80.30;;;;;;4767541;29;20118;-88
2023/08/28 12:49:01;;;;;;;11.20;4.90;;;19.60;80.70;;;;;;4789278;29;20055;-88
2023/08/28 12:51:28;;;;;;;12.67;4.80;;;19.60;80.30;;;;;;4772914;29;20057;-88
2023/08/28 12:53:55;;;;;;;10.05;4.70;;;19.60;80.90;;;;;;4774946;29;20062;-88
2023/08/28 13:05:14;;;;;;;12.00;5.47;;;19.60;80.60;;;;;;4717857;30;20080;-91
2023/08/28 13:12:34;;;;;;;10.18;5.05;;;19.50;80.90;;;;;;4728571;30;20102;-91
2023/08/28 13:15:04;;;;;;;11.35;5.10;;;19.50;81.00;;;;;;4733110;30;20044;-90
2023/08/28 13:17:42;;;;;;;8.77;4.78;;;19.50;81.10;;;;;;4777170;29;20505;-90
2023/08/28 13:20:10;;;;;;;10.07;5.00;;;19.50;81.40;;;;;;4776637;29;20050;-90
2023/08/28 13:22:37;;;;;;;11.50;4.70;;;19.50;81.30;;;;;;4786589;29;20050;-91